sensor_id;sensor_type;location;lat;lon;timestamp;P1;durP1;ratioP1;P2;durP2;ratioP2
15748;SDS011;7976;52.526;13.326;2022-11-20T00:00:38;17.53;;;7.23;;
15748;SDS011;7976;52.526;13.326;2022-11-20T00:03:05;18.83;;;7.87;;
15748;SDS011;7976;52.526;13.326;2022-11-20T00:05:32;18.50;;;7.43;;
15748;SDS011;7976;52.526;13.326;2022-11-20T00:07:59;19.43;;;7.33;;
15748;SDS011;7976;52.526;13.326;2022-11-20T00:10:28;17.50;;;7.20;;
15748;SDS011;7976;52.526;13.326;2022-11-20T00:12:57;18.90;;;8.00;;
15748;SDS011;7976;52.526;13.326;2022-11-20T00:15:27;18.90;;;7.50;;
15748;SDS011;7976;52.526;13.326;2022-11-20T00:17:54;19.87;;;7.43;;
15748;SDS011;7976;52.526;13.326;2022-11-20T00:20:22;17.10;;;6.67;;
15748;SDS011;7976;52.526;13.326;2022-11-20T00:22:49;19.13;;;7.63;;
15748;SDS011;7976;52.526;13.326;2022-11-20T00:25:18;19.00;;;7.73;;
15748;SDS011;7976;52.526;13.326;2022-11-20T00:27:46;18.90;;;7.60;;
15748;SDS011;7976;52.526;13.326;2022-11-20T00:30:13;22.53;;;7.03;;
15748;SDS011;7976;52.526;13.326;2022-11-20T00:32:40;18.13;;;6.70;;
15748;SDS011;7976;52.526;13.326;2022-11-20T00:35:07;17.90;;;6.63;;
15748;SDS011;7976;52.526;13.326;2022-11-20T00:37:35;17.40;;;7.07;;
15748;SDS011;7976;52.526;13.326;2022-11-20T00:40:02;19.77;;;7.77;;
15748;SDS011;7976;52.526;13.326;2022-11-20T00:42:29;19.27;;;6.93;;
15748;SDS011;7976;52.526;13.326;2022-11-20T00:44:59;20.03;;;7.50;;
15748;SDS011;7976;52.526;13.326;2022-11-20T00:47:26;21.97;;;6.93;;
15748;SDS011;7976;52.526;13.326;2022-11-20T00:49:52;19.63;;;8.43;;
15748;SDS011;7976;52.526;13.326;2022-11-20T00:52:19;20.33;;;7.60;;
15748;SDS011;7976;52.526;13.326;2022-11-20T00:54:46;19.30;;;6.97;;
15748;SDS011;7976;52.526;13.326;2022-11-20T00:57:13;17.43;;;6.53;;
15748;SDS011;7976;52.526;13.326;2022-11-20T00:59:40;22.50;;;7.87;;
15748;SDS011;7976;52.526;13.326;2022-11-20T01:02:08;19.80;;;8.20;;
15748;SDS011;7976;52.526;13.326;2022-11-20T01:04:35;19.00;;;6.90;;
15748;SDS011;7976;52.526;13.326;2022-11-20T01:07:02;17.30;;;7.03;;
15748;SDS011;7976;52.526;13.326;2022-11-20T01:09:30;21.10;;;8.40;;
15748;SDS011;7976;52.526;13.326;2022-11-20T01:11:56;30.07;;;12.67;;
15748;SDS011;7976;52.526;13.326;2022-11-20T01:14:24;20.70;;;8.25;;
15748;SDS011;7976;52.526;13.326;2022-11-20T01:16:51;14.73;;;6.57;;
15748;SDS011;7976;52.526;13.326;2022-11-20T01:19:20;17.52;;;7.43;;
15748;SDS011;7976;52.526;13.326;2022-11-20T01:21:49;19.27;;;9.53;;
15748;SDS011;7976;52.526;13.326;2022-11-20T01:24:19;14.80;;;6.43;;
15748;SDS011;7976;52.526;13.326;2022-11-20T01:26:48;22.03;;;7.70;;
15748;SDS011;7976;52.526;13.326;2022-11-20T01:29:18;18.20;;;7.13;;
15748;SDS011;7976;52.526;13.326;2022-11-20T01:31:47;19.63;;;6.77;;
15748;SDS011;7976;52.526;13.326;2022-11-20T01:34:15;18.80;;;6.90;;
15748;SDS011;7976;52.526;13.326;2022-11-20T01:36:46;20.30;;;7.27;;
15748;SDS011;7976;52.526;13.326;2022-11-20T01:39:14;22.13;;;7.37;;
15748;SDS011;7976;52.526;13.326;2022-11-20T01:41:43;17.50;;;6.90;;
15748;SDS011;7976;52.526;13.326;2022-11-20T01:47:29;17.87;;;6.73;;
15748;SDS011;7976;52.526;13.326;2022-11-20T01:50:04;17.83;;;7.10;;
15748;SDS011;7976;52.526;13.326;2022-11-20T01:52:39;19.03;;;7.63;;
15748;SDS011;7976;52.526;13.326;2022-11-20T01:55:13;17.03;;;7.13;;
15748;SDS011;7976;52.526;13.326;2022-11-20T01:57:47;19.20;;;8.20;;
15748;SDS011;7976;52.526;13.326;2022-11-20T02:00:16;20.23;;;7.70;;
15748;SDS011;7976;52.526;13.326;2022-11-20T02:02:47;19.87;;;7.40;;
15748;SDS011;7976;52.526;13.326;2022-11-20T02:05:21;18.87;;;7.03;;
15748;SDS011;7976;52.526;13.326;2022-11-20T02:07:55;18.17;;;7.40;;
15748;SDS011;7976;52.526;13.326;2022-11-20T02:10:26;19.50;;;8.00;;
15748;SDS011;7976;52.526;13.326;2022-11-20T02:12:54;21.50;;;8.30;;
15748;SDS011;7976;52.526;13.326;2022-11-20T02:15:40;19.80;;;7.47;;
15748;SDS011;7976;52.526;13.326;2022-11-20T02:18:07;22.50;;;8.13;;
15748;SDS011;7976;52.526;13.326;2022-11-20T02:20:36;18.80;;;7.53;;
15748;SDS011;7976;52.526;13.326;2022-11-20T02:23:05;19.63;;;7.73;;
15748;SDS011;7976;52.526;13.326;2022-11-20T02:25:42;18.10;;;7.13;;
15748;SDS011;7976;52.526;13.326;2022-11-20T02:28:11;19.33;;;7.97;;
15748;SDS011;7976;52.526;13.326;2022-11-20T02:30:38;22.07;;;7.70;;
15748;SDS011;7976;52.526;13.326;2022-11-20T02:33:04;19.53;;;7.40;;
15748;SDS011;7976;52.526;13.326;2022-11-20T02:35:41;22.27;;;7.77;;
15748;SDS011;7976;52.526;13.326;2022-11-20T02:38:10;20.53;;;8.40;;
15748;SDS011;7976;52.526;13.326;2022-11-20T02:40:39;21.70;;;7.87;;
15748;SDS011;7976;52.526;13.326;2022-11-20T02:43:10;22.47;;;8.33;;
15748;SDS011;7976;52.526;13.326;2022-11-20T02:45:37;25.03;;;8.63;;
15748;SDS011;7976;52.526;13.326;2022-11-20T02:48:05;24.47;;;8.70;;
15748;SDS011;7976;52.526;13.326;2022-11-20T02:50:33;20.20;;;7.30;;
15748;SDS011;7976;52.526;13.326;2022-11-20T02:53:03;19.30;;;7.90;;
15748;SDS011;7976;52.526;13.326;2022-11-20T02:55:30;18.60;;;7.43;;
15748;SDS011;7976;52.526;13.326;2022-11-20T02:57:57;22.60;;;8.18;;
15748;SDS011;7976;52.526;13.326;2022-11-20T03:00:26;22.77;;;8.07;;
15748;SDS011;7976;52.526;13.326;2022-11-20T03:02:53;21.90;;;9.93;;
15748;SDS011;7976;52.526;13.326;2022-11-20T03:05:20;21.30;;;9.17;;
15748;SDS011;7976;52.526;13.326;2022-11-20T03:07:46;24.07;;;10.43;;
15748;SDS011;7976;52.526;13.326;2022-11-20T03:10:13;22.20;;;9.10;;
15748;SDS011;7976;52.526;13.326;2022-11-20T03:12:40;25.60;;;9.97;;
15748;SDS011;7976;52.526;13.326;2022-11-20T03:15:08;20.37;;;7.80;;
15748;SDS011;7976;52.526;13.326;2022-11-20T03:17:37;21.53;;;8.97;;
15748;SDS011;7976;52.526;13.326;2022-11-20T03:20:04;22.60;;;8.70;;
15748;SDS011;7976;52.526;13.326;2022-11-20T03:22:34;21.45;;;8.50;;
15748;SDS011;7976;52.526;13.326;2022-11-20T03:25:00;20.50;;;8.33;;
15748;SDS011;7976;52.526;13.326;2022-11-20T03:27:31;25.37;;;9.43;;
15748;SDS011;7976;52.526;13.326;2022-11-20T03:29:59;22.97;;;9.07;;
15748;SDS011;7976;52.526;13.326;2022-11-20T03:32:26;17.73;;;7.73;;
15748;SDS011;7976;52.526;13.326;2022-11-20T03:34:55;22.20;;;8.43;;
15748;SDS011;7976;52.526;13.326;2022-11-20T03:37:21;20.87;;;8.37;;
15748;SDS011;7976;52.526;13.326;2022-11-20T03:39:48;23.00;;;8.33;;
15748;SDS011;7976;52.526;13.326;2022-11-20T03:42:15;20.33;;;8.00;;
15748;SDS011;7976;52.526;13.326;2022-11-20T03:44:56;23.27;;;8.50;;
15748;SDS011;7976;52.526;13.326;2022-11-20T03:47:23;20.30;;;8.70;;
15748;SDS011;7976;52.526;13.326;2022-11-20T03:49:50;19.83;;;7.83;;
15748;SDS011;7976;52.526;13.326;2022-11-20T03:52:18;21.70;;;8.40;;
15748;SDS011;7976;52.526;13.326;2022-11-20T03:54:45;25.10;;;10.60;;
15748;SDS011;7976;52.526;13.326;2022-11-20T03:57:12;23.57;;;9.87;;
15748;SDS011;7976;52.526;13.326;2022-11-20T03:59:38;21.97;;;8.23;;
15748;SDS011;7976;52.526;13.326;2022-11-20T04:02:05;22.13;;;8.17;;
15748;SDS011;7976;52.526;13.326;2022-11-20T04:04:32;20.13;;;8.17;;
15748;SDS011;7976;52.526;13.326;2022-11-20T04:06:59;22.80;;;8.67;;
15748;SDS011;7976;52.526;13.326;2022-11-20T04:09:28;22.53;;;8.87;;
15748;SDS011;7976;52.526;13.326;2022-11-20T04:11:54;20.53;;;7.97;;
15748;SDS011;7976;52.526;13.326;2022-11-20T04:14:21;20.67;;;8.68;;
15748;SDS011;7976;52.526;13.326;2022-11-20T04:16:48;27.83;;;9.10;;
15748;SDS011;7976;52.526;13.326;2022-11-20T04:19:15;21.27;;;8.63;;
15748;SDS011;7976;52.526;13.326;2022-11-20T04:21:43;19.13;;;7.83;;
15748;SDS011;7976;52.526;13.326;2022-11-20T04:24:10;20.33;;;8.33;;
15748;SDS011;7976;52.526;13.326;2022-11-20T04:26:39;21.50;;;8.47;;
15748;SDS011;7976;52.526;13.326;2022-11-20T04:29:09;22.40;;;8.60;;
15748;SDS011;7976;52.526;13.326;2022-11-20T04:31:38;22.67;;;8.20;;
15748;SDS011;7976;52.526;13.326;2022-11-20T04:34:06;20.93;;;7.87;;
15748;SDS011;7976;52.526;13.326;2022-11-20T04:36:33;22.73;;;9.27;;
15748;SDS011;7976;52.526;13.326;2022-11-20T04:39:01;20.07;;;8.20;;
15748;SDS011;7976;52.526;13.326;2022-11-20T04:41:33;23.23;;;8.43;;
15748;SDS011;7976;52.526;13.326;2022-11-20T04:44:04;20.30;;;8.60;;
15748;SDS011;7976;52.526;13.326;2022-11-20T04:46:32;21.53;;;8.23;;
15748;SDS011;7976;52.526;13.326;2022-11-20T04:49:01;17.97;;;7.20;;
15748;SDS011;7976;52.526;13.326;2022-11-20T04:51:29;21.83;;;8.10;;
15748;SDS011;7976;52.526;13.326;2022-11-20T04:53:56;21.80;;;9.10;;
15748;SDS011;7976;52.526;13.326;2022-11-20T04:56:23;23.90;;;9.30;;
15748;SDS011;7976;52.526;13.326;2022-11-20T04:58:50;20.77;;;8.00;;
15748;SDS011;7976;52.526;13.326;2022-11-20T05:01:19;18.58;;;7.75;;
15748;SDS011;7976;52.526;13.326;2022-11-20T05:03:48;21.75;;;9.20;;
15748;SDS011;7976;52.526;13.326;2022-11-20T05:06:16;21.83;;;8.37;;
15748;SDS011;7976;52.526;13.326;2022-11-20T05:08:46;21.33;;;8.77;;
15748;SDS011;7976;52.526;13.326;2022-11-20T05:11:14;19.10;;;8.27;;
15748;SDS011;7976;52.526;13.326;2022-11-20T05:13:44;22.37;;;7.70;;
15748;SDS011;7976;52.526;13.326;2022-11-20T05:16:12;20.27;;;8.77;;
15748;SDS011;7976;52.526;13.326;2022-11-20T05:18:42;20.97;;;8.10;;
15748;SDS011;7976;52.526;13.326;2022-11-20T05:21:09;18.97;;;7.57;;
15748;SDS011;7976;52.526;13.326;2022-11-20T05:23:37;24.63;;;8.93;;
15748;SDS011;7976;52.526;13.326;2022-11-20T05:26:06;20.67;;;8.03;;
15748;SDS011;7976;52.526;13.326;2022-11-20T05:28:37;22.87;;;9.10;;
15748;SDS011;7976;52.526;13.326;2022-11-20T05:31:05;20.37;;;7.70;;
15748;SDS011;7976;52.526;13.326;2022-11-20T05:33:33;23.10;;;10.43;;
15748;SDS011;7976;52.526;13.326;2022-11-20T05:36:03;23.03;;;9.60;;
15748;SDS011;7976;52.526;13.326;2022-11-20T05:38:30;26.57;;;8.30;;
15748;SDS011;7976;52.526;13.326;2022-11-20T05:41:02;22.20;;;8.57;;
15748;SDS011;7976;52.526;13.326;2022-11-20T05:43:31;20.85;;;8.90;;
15748;SDS011;7976;52.526;13.326;2022-11-20T05:46:00;18.45;;;7.68;;
15748;SDS011;7976;52.526;13.326;2022-11-20T05:48:26;20.70;;;7.80;;
15748;SDS011;7976;52.526;13.326;2022-11-20T05:50:53;21.77;;;8.27;;
15748;SDS011;7976;52.526;13.326;2022-11-20T05:53:23;24.43;;;8.83;;
15748;SDS011;7976;52.526;13.326;2022-11-20T05:55:57;20.57;;;8.13;;
15748;SDS011;7976;52.526;13.326;2022-11-20T05:58:25;23.30;;;8.63;;
15748;SDS011;7976;52.526;13.326;2022-11-20T06:00:53;17.77;;;7.80;;
15748;SDS011;7976;52.526;13.326;2022-11-20T06:03:20;20.10;;;7.77;;
15748;SDS011;7976;52.526;13.326;2022-11-20T06:05:47;20.27;;;7.53;;
15748;SDS011;7976;52.526;13.326;2022-11-20T06:08:14;18.43;;;7.53;;
15748;SDS011;7976;52.526;13.326;2022-11-20T06:10:43;19.37;;;7.70;;
15748;SDS011;7976;52.526;13.326;2022-11-20T06:13:10;23.80;;;7.90;;
15748;SDS011;7976;52.526;13.326;2022-11-20T06:15:37;19.50;;;7.00;;
15748;SDS011;7976;52.526;13.326;2022-11-20T06:18:04;22.33;;;8.00;;
15748;SDS011;7976;52.526;13.326;2022-11-20T06:20:31;21.37;;;8.43;;
15748;SDS011;7976;52.526;13.326;2022-11-20T06:22:58;24.33;;;8.27;;
15748;SDS011;7976;52.526;13.326;2022-11-20T06:25:25;20.10;;;7.90;;
15748;SDS011;7976;52.526;13.326;2022-11-20T06:27:53;21.63;;;8.37;;
15748;SDS011;7976;52.526;13.326;2022-11-20T06:30:20;24.27;;;7.87;;
15748;SDS011;7976;52.526;13.326;2022-11-20T06:32:46;21.60;;;7.70;;
15748;SDS011;7976;52.526;13.326;2022-11-20T06:35:14;23.40;;;8.57;;
15748;SDS011;7976;52.526;13.326;2022-11-20T06:37:41;21.70;;;8.83;;
15748;SDS011;7976;52.526;13.326;2022-11-20T06:40:09;22.23;;;8.17;;
15748;SDS011;7976;52.526;13.326;2022-11-20T06:42:37;21.30;;;9.00;;
15748;SDS011;7976;52.526;13.326;2022-11-20T06:45:06;20.60;;;8.00;;
15748;SDS011;7976;52.526;13.326;2022-11-20T06:47:34;20.27;;;8.33;;
15748;SDS011;7976;52.526;13.326;2022-11-20T06:50:01;20.03;;;7.83;;
15748;SDS011;7976;52.526;13.326;2022-11-20T06:52:28;20.33;;;9.00;;
15748;SDS011;7976;52.526;13.326;2022-11-20T06:54:55;16.87;;;7.70;;
15748;SDS011;7976;52.526;13.326;2022-11-20T06:57:22;19.47;;;8.03;;
15748;SDS011;7976;52.526;13.326;2022-11-20T06:59:48;21.87;;;8.50;;
15748;SDS011;7976;52.526;13.326;2022-11-20T07:02:17;22.83;;;8.63;;
15748;SDS011;7976;52.526;13.326;2022-11-20T07:04:43;21.17;;;7.77;;
15748;SDS011;7976;52.526;13.326;2022-11-20T07:07:10;19.67;;;7.83;;
15748;SDS011;7976;52.526;13.326;2022-11-20T07:09:37;20.33;;;7.80;;
15748;SDS011;7976;52.526;13.326;2022-11-20T07:12:04;18.27;;;9.37;;
15748;SDS011;7976;52.526;13.326;2022-11-20T07:14:32;20.17;;;7.97;;
15748;SDS011;7976;52.526;13.326;2022-11-20T07:16:59;22.03;;;8.23;;
15748;SDS011;7976;52.526;13.326;2022-11-20T07:19:27;20.53;;;8.13;;
15748;SDS011;7976;52.526;13.326;2022-11-20T07:22:00;21.20;;;8.47;;
15748;SDS011;7976;52.526;13.326;2022-11-20T07:24:28;23.00;;;8.17;;
15748;SDS011;7976;52.526;13.326;2022-11-20T07:26:55;18.73;;;7.77;;
15748;SDS011;7976;52.526;13.326;2022-11-20T07:29:22;20.10;;;8.30;;
15748;SDS011;7976;52.526;13.326;2022-11-20T07:31:49;23.17;;;8.97;;
15748;SDS011;7976;52.526;13.326;2022-11-20T07:34:16;21.27;;;8.53;;
15748;SDS011;7976;52.526;13.326;2022-11-20T07:36:48;20.97;;;8.73;;
15748;SDS011;7976;52.526;13.326;2022-11-20T07:39:15;23.23;;;8.63;;
15748;SDS011;7976;52.526;13.326;2022-11-20T07:41:45;20.40;;;8.33;;
15748;SDS011;7976;52.526;13.326;2022-11-20T07:44:12;23.10;;;8.37;;
15748;SDS011;7976;52.526;13.326;2022-11-20T07:46:39;23.47;;;8.27;;
15748;SDS011;7976;52.526;13.326;2022-11-20T07:49:06;23.30;;;8.80;;
15748;SDS011;7976;52.526;13.326;2022-11-20T07:51:33;24.23;;;8.90;;
15748;SDS011;7976;52.526;13.326;2022-11-20T07:54:01;20.50;;;8.70;;
15748;SDS011;7976;52.526;13.326;2022-11-20T07:56:29;24.00;;;8.50;;
15748;SDS011;7976;52.526;13.326;2022-11-20T07:58:55;22.23;;;8.20;;
15748;SDS011;7976;52.526;13.326;2022-11-20T08:01:22;22.23;;;8.90;;
15748;SDS011;7976;52.526;13.326;2022-11-20T08:03:49;21.60;;;8.53;;
15748;SDS011;7976;52.526;13.326;2022-11-20T08:06:16;23.53;;;8.93;;
15748;SDS011;7976;52.526;13.326;2022-11-20T08:08:44;23.73;;;9.13;;
15748;SDS011;7976;52.526;13.326;2022-11-20T08:11:12;24.67;;;9.63;;
15748;SDS011;7976;52.526;13.326;2022-11-20T08:13:57;24.43;;;8.47;;
15748;SDS011;7976;52.526;13.326;2022-11-20T08:16:39;20.10;;;8.37;;
15748;SDS011;7976;52.526;13.326;2022-11-20T08:19:07;26.70;;;8.40;;
15748;SDS011;7976;52.526;13.326;2022-11-20T08:21:34;23.38;;;8.95;;
15748;SDS011;7976;52.526;13.326;2022-11-20T08:24:02;22.17;;;8.70;;
15748;SDS011;7976;52.526;13.326;2022-11-20T08:26:31;23.47;;;9.17;;
15748;SDS011;7976;52.526;13.326;2022-11-20T08:28:58;21.13;;;8.70;;
15748;SDS011;7976;52.526;13.326;2022-11-20T08:31:25;21.77;;;8.53;;
15748;SDS011;7976;52.526;13.326;2022-11-20T08:33:53;26.63;;;9.30;;
15748;SDS011;7976;52.526;13.326;2022-11-20T08:36:21;20.23;;;8.60;;
15748;SDS011;7976;52.526;13.326;2022-11-20T08:38:50;19.93;;;8.27;;
15748;SDS011;7976;52.526;13.326;2022-11-20T08:41:20;27.00;;;8.57;;
15748;SDS011;7976;52.526;13.326;2022-11-20T08:43:58;20.37;;;8.43;;
15748;SDS011;7976;52.526;13.326;2022-11-20T08:46:32;24.33;;;8.63;;
15748;SDS011;7976;52.526;13.326;2022-11-20T08:49:02;22.77;;;9.67;;
15748;SDS011;7976;52.526;13.326;2022-11-20T08:51:31;21.43;;;9.17;;
15748;SDS011;7976;52.526;13.326;2022-11-20T08:53:58;20.70;;;7.77;;
15748;SDS011;7976;52.526;13.326;2022-11-20T08:56:29;22.50;;;9.17;;
15748;SDS011;7976;52.526;13.326;2022-11-20T08:58:59;21.02;;;8.02;;
15748;SDS011;7976;52.526;13.326;2022-11-20T09:01:27;20.47;;;8.10;;
15748;SDS011;7976;52.526;13.326;2022-11-20T09:03:55;23.98;;;8.50;;
15748;SDS011;7976;52.526;13.326;2022-11-20T09:06:23;19.15;;;8.48;;
15748;SDS011;7976;52.526;13.326;2022-11-20T09:08:51;23.45;;;9.15;;
15748;SDS011;7976;52.526;13.326;2022-11-20T09:11:18;25.25;;;12.90;;
15748;SDS011;7976;52.526;13.326;2022-11-20T09:13:46;26.67;;;11.27;;
15748;SDS011;7976;52.526;13.326;2022-11-20T09:16:14;22.83;;;10.38;;
15748;SDS011;7976;52.526;13.326;2022-11-20T09:18:41;23.45;;;9.95;;
15748;SDS011;7976;52.526;13.326;2022-11-20T09:21:11;23.25;;;9.23;;
15748;SDS011;7976;52.526;13.326;2022-11-20T09:23:39;21.63;;;8.45;;
15748;SDS011;7976;52.526;13.326;2022-11-20T09:26:08;25.83;;;10.27;;
15748;SDS011;7976;52.526;13.326;2022-11-20T09:28:37;22.17;;;9.18;;
15748;SDS011;7976;52.526;13.326;2022-11-20T09:31:06;23.53;;;8.73;;
15748;SDS011;7976;52.526;13.326;2022-11-20T09:33:45;24.67;;;9.40;;
15748;SDS011;7976;52.526;13.326;2022-11-20T09:36:26;20.80;;;8.80;;
15748;SDS011;7976;52.526;13.326;2022-11-20T09:38:53;21.77;;;8.80;;
15748;SDS011;7976;52.526;13.326;2022-11-20T09:41:32;20.65;;;9.10;;
15748;SDS011;7976;52.526;13.326;2022-11-20T09:44:21;23.35;;;8.77;;
15748;SDS011;7976;52.526;13.326;2022-11-20T09:47:07;21.05;;;8.45;;
15748;SDS011;7976;52.526;13.326;2022-11-20T09:49:51;21.65;;;8.57;;
15748;SDS011;7976;52.526;13.326;2022-11-20T09:52:44;22.63;;;9.15;;
15748;SDS011;7976;52.526;13.326;2022-11-20T09:55:26;24.17;;;9.18;;
15748;SDS011;7976;52.526;13.326;2022-11-20T09:57:59;25.17;;;9.80;;
15748;SDS011;7976;52.526;13.326;2022-11-20T10:00:27;22.77;;;8.93;;
15748;SDS011;7976;52.526;13.326;2022-11-20T10:02:57;20.58;;;8.77;;
15748;SDS011;7976;52.526;13.326;2022-11-20T10:05:33;22.95;;;8.63;;
15748;SDS011;7976;52.526;13.326;2022-11-20T10:08:10;20.23;;;8.95;;
15748;SDS011;7976;52.526;13.326;2022-11-20T10:10:49;25.42;;;8.95;;
15748;SDS011;7976;52.526;13.326;2022-11-20T10:13:32;20.02;;;8.52;;
15748;SDS011;7976;52.526;13.326;2022-11-20T10:16:23;24.30;;;8.35;;
15748;SDS011;7976;52.526;13.326;2022-11-20T10:19:08;22.23;;;8.00;;
15748;SDS011;7976;52.526;13.326;2022-11-20T10:22:02;23.40;;;8.63;;
15748;SDS011;7976;52.526;13.326;2022-11-20T10:25:02;21.73;;;8.82;;
15748;SDS011;7976;52.526;13.326;2022-11-20T10:27:50;19.02;;;8.02;;
15748;SDS011;7976;52.526;13.326;2022-11-20T10:30:35;19.70;;;7.85;;
15748;SDS011;7976;52.526;13.326;2022-11-20T10:33:11;21.98;;;8.48;;
15748;SDS011;7976;52.526;13.326;2022-11-20T10:35:45;21.83;;;8.30;;
15748;SDS011;7976;52.526;13.326;2022-11-20T10:38:23;18.52;;;7.97;;
15748;SDS011;7976;52.526;13.326;2022-11-20T10:41:03;20.08;;;7.82;;
15748;SDS011;7976;52.526;13.326;2022-11-20T10:43:52;24.95;;;9.20;;
15748;SDS011;7976;52.526;13.326;2022-11-20T10:46:31;19.13;;;8.23;;
15748;SDS011;7976;52.526;13.326;2022-11-20T10:49:11;20.48;;;8.25;;
15748;SDS011;7976;52.526;13.326;2022-11-20T10:51:45;18.65;;;7.45;;
15748;SDS011;7976;52.526;13.326;2022-11-20T10:54:31;20.00;;;7.78;;
15748;SDS011;7976;52.526;13.326;2022-11-20T10:57:14;21.50;;;8.45;;
15748;SDS011;7976;52.526;13.326;2022-11-20T11:00:03;18.30;;;7.45;;
15748;SDS011;7976;52.526;13.326;2022-11-20T11:02:34;18.75;;;8.15;;
15748;SDS011;7976;52.526;13.326;2022-11-20T11:05:12;22.80;;;7.75;;
15748;SDS011;7976;52.526;13.326;2022-11-20T11:07:50;17.05;;;7.60;;
15748;SDS011;7976;52.526;13.326;2022-11-20T11:10:23;21.17;;;7.90;;
15748;SDS011;7976;52.526;13.326;2022-11-20T11:12:58;19.38;;;8.00;;
15748;SDS011;7976;52.526;13.326;2022-11-20T11:15:26;19.67;;;7.63;;
15748;SDS011;7976;52.526;13.326;2022-11-20T11:17:56;19.88;;;7.80;;
15748;SDS011;7976;52.526;13.326;2022-11-20T11:20:23;18.08;;;7.82;;
15748;SDS011;7976;52.526;13.326;2022-11-20T11:22:52;19.75;;;7.78;;
15748;SDS011;7976;52.526;13.326;2022-11-20T11:25:26;18.52;;;8.02;;
15748;SDS011;7976;52.526;13.326;2022-11-20T11:27:59;19.65;;;7.22;;
15748;SDS011;7976;52.526;13.326;2022-11-20T11:30:29;18.27;;;6.93;;
15748;SDS011;7976;52.526;13.326;2022-11-20T11:33:09;18.65;;;6.88;;
15748;SDS011;7976;52.526;13.326;2022-11-20T11:35:45;17.17;;;7.03;;
15748;SDS011;7976;52.526;13.326;2022-11-20T11:38:15;16.50;;;6.50;;
15748;SDS011;7976;52.526;13.326;2022-11-20T11:40:49;14.07;;;5.93;;
15748;SDS011;7976;52.526;13.326;2022-11-20T11:43:20;18.90;;;8.35;;
15748;SDS011;7976;52.526;13.326;2022-11-20T11:46:20;17.97;;;7.47;;
15748;SDS011;7976;52.526;13.326;2022-11-20T11:48:58;17.30;;;6.65;;
15748;SDS011;7976;52.526;13.326;2022-11-20T11:51:39;17.13;;;7.50;;
15748;SDS011;7976;52.526;13.326;2022-11-20T11:54:24;17.02;;;7.38;;
15748;SDS011;7976;52.526;13.326;2022-11-20T11:57:00;18.95;;;6.70;;
15748;SDS011;7976;52.526;13.326;2022-11-20T11:59:41;16.60;;;6.63;;
15748;SDS011;7976;52.526;13.326;2022-11-20T12:02:27;20.70;;;6.97;;
15748;SDS011;7976;52.526;13.326;2022-11-20T12:05:04;16.23;;;6.30;;
15748;SDS011;7976;52.526;13.326;2022-11-20T12:07:45;19.30;;;7.18;;
15748;SDS011;7976;52.526;13.326;2022-11-20T12:10:21;19.70;;;7.68;;
15748;SDS011;7976;52.526;13.326;2022-11-20T12:13:08;17.27;;;6.88;;
15748;SDS011;7976;52.526;13.326;2022-11-20T12:15:51;17.98;;;6.97;;
15748;SDS011;7976;52.526;13.326;2022-11-20T12:18:20;16.70;;;6.78;;
15748;SDS011;7976;52.526;13.326;2022-11-20T12:20:53;16.05;;;6.70;;
15748;SDS011;7976;52.526;13.326;2022-11-20T12:23:41;16.60;;;6.65;;
15748;SDS011;7976;52.526;13.326;2022-11-20T12:26:33;17.48;;;6.43;;
15748;SDS011;7976;52.526;13.326;2022-11-20T12:29:18;16.48;;;5.93;;
15748;SDS011;7976;52.526;13.326;2022-11-20T12:32:15;16.58;;;6.40;;
15748;SDS011;7976;52.526;13.326;2022-11-20T12:35:04;24.52;;;8.48;;
15748;SDS011;7976;52.526;13.326;2022-11-20T12:37:56;21.25;;;7.60;;
15748;SDS011;7976;52.526;13.326;2022-11-20T12:40:54;36.80;;;12.52;;
15748;SDS011;7976;52.526;13.326;2022-11-20T12:43:37;17.47;;;6.60;;
15748;SDS011;7976;52.526;13.326;2022-11-20T12:46:41;16.15;;;6.03;;
15748;SDS011;7976;52.526;13.326;2022-11-20T12:49:20;19.95;;;7.07;;
15748;SDS011;7976;52.526;13.326;2022-11-20T12:52:07;14.32;;;5.45;;
15748;SDS011;7976;52.526;13.326;2022-11-20T12:54:59;13.32;;;5.47;;
15748;SDS011;7976;52.526;13.326;2022-11-20T12:57:40;13.90;;;5.32;;
15748;SDS011;7976;52.526;13.326;2022-11-20T13:00:17;14.80;;;5.63;;
15748;SDS011;7976;52.526;13.326;2022-11-20T13:06:05;14.65;;;5.68;;
15748;SDS011;7976;52.526;13.326;2022-11-20T13:08:41;14.70;;;5.50;;
15748;SDS011;7976;52.526;13.326;2022-11-20T13:11:18;13.65;;;5.22;;
15748;SDS011;7976;52.526;13.326;2022-11-20T13:14:03;22.58;;;8.27;;
15748;SDS011;7976;52.526;13.326;2022-11-20T13:16:45;14.32;;;5.72;;
15748;SDS011;7976;52.526;13.326;2022-11-20T13:19:22;17.52;;;6.55;;
15748;SDS011;7976;52.526;13.326;2022-11-20T13:21:50;16.45;;;6.15;;
15748;SDS011;7976;52.526;13.326;2022-11-20T13:24:21;15.75;;;6.30;;
15748;SDS011;7976;52.526;13.326;2022-11-20T13:30:01;17.52;;;5.97;;
15748;SDS011;7976;52.526;13.326;2022-11-20T13:32:51;16.20;;;5.75;;
15748;SDS011;7976;52.526;13.326;2022-11-20T13:35:26;14.73;;;5.32;;
15748;SDS011;7976;52.526;13.326;2022-11-20T13:38:01;16.35;;;5.53;;
15748;SDS011;7976;52.526;13.326;2022-11-20T13:40:32;16.75;;;6.07;;
15748;SDS011;7976;52.526;13.326;2022-11-20T13:43:08;15.32;;;5.93;;
15748;SDS011;7976;52.526;13.326;2022-11-20T13:46:02;12.55;;;5.18;;
15748;SDS011;7976;52.526;13.326;2022-11-20T13:48:38;14.48;;;5.55;;
15748;SDS011;7976;52.526;13.326;2022-11-20T13:51:20;19.80;;;6.22;;
15748;SDS011;7976;52.526;13.326;2022-11-20T13:54:06;15.20;;;6.63;;
15748;SDS011;7976;52.526;13.326;2022-11-20T14:00:15;15.85;;;5.45;;
15748;SDS011;7976;52.526;13.326;2022-11-20T14:02:44;16.42;;;5.32;;
15748;SDS011;7976;52.526;13.326;2022-11-20T14:05:28;13.93;;;4.95;;
15748;SDS011;7976;52.526;13.326;2022-11-20T14:08:05;15.32;;;5.88;;
15748;SDS011;7976;52.526;13.326;2022-11-20T14:10:40;15.43;;;5.53;;
15748;SDS011;7976;52.526;13.326;2022-11-20T14:13:10;16.88;;;5.57;;
15748;SDS011;7976;52.526;13.326;2022-11-20T14:15:44;13.57;;;4.93;;
15748;SDS011;7976;52.526;13.326;2022-11-20T14:18:14;14.65;;;5.63;;
15748;SDS011;7976;52.526;13.326;2022-11-20T14:20:46;16.60;;;5.55;;
15748;SDS011;7976;52.526;13.326;2022-11-20T14:23:23;16.40;;;5.63;;
15748;SDS011;7976;52.526;13.326;2022-11-20T14:25:53;18.27;;;6.07;;
15748;SDS011;7976;52.526;13.326;2022-11-20T14:28:23;19.83;;;6.40;;
15748;SDS011;7976;52.526;13.326;2022-11-20T14:30:53;17.10;;;6.15;;
15748;SDS011;7976;52.526;13.326;2022-11-20T14:33:21;17.23;;;5.53;;
15748;SDS011;7976;52.526;13.326;2022-11-20T14:35:56;14.02;;;5.72;;
15748;SDS011;7976;52.526;13.326;2022-11-20T14:38:28;14.67;;;5.43;;
15748;SDS011;7976;52.526;13.326;2022-11-20T14:41:05;13.80;;;5.75;;
15748;SDS011;7976;52.526;13.326;2022-11-20T14:43:33;16.97;;;6.30;;
15748;SDS011;7976;52.526;13.326;2022-11-20T14:46:03;18.40;;;6.20;;
15748;SDS011;7976;52.526;13.326;2022-11-20T14:48:35;13.60;;;5.93;;
15748;SDS011;7976;52.526;13.326;2022-11-20T14:51:08;15.03;;;5.97;;
15748;SDS011;7976;52.526;13.326;2022-11-20T14:53:38;15.97;;;5.67;;
15748;SDS011;7976;52.526;13.326;2022-11-20T14:56:05;16.30;;;6.00;;
15748;SDS011;7976;52.526;13.326;2022-11-20T14:58:32;16.88;;;5.82;;
15748;SDS011;7976;52.526;13.326;2022-11-20T15:01:00;14.70;;;6.20;;
15748;SDS011;7976;52.526;13.326;2022-11-20T15:03:30;14.40;;;6.00;;
15748;SDS011;7976;52.526;13.326;2022-11-20T15:06:02;14.77;;;5.47;;
15748;SDS011;7976;52.526;13.326;2022-11-20T15:08:39;16.73;;;6.07;;
15748;SDS011;7976;52.526;13.326;2022-11-20T15:11:27;15.27;;;5.90;;
15748;SDS011;7976;52.526;13.326;2022-11-20T15:13:58;15.30;;;5.68;;